sensor_id;sensor_type;location;lat;lon;timestamp;temperature;humidity
15384;DHT22;7790;53.022;12.968;2023-04-15T00:02:34;20.60;44.30
15384;DHT22;7790;53.022;12.968;2023-04-15T00:06:36;20.50;44.30
15384;DHT22;7790;53.022;12.968;2023-04-15T00:10:37;20.50;44.40
15384;DHT22;7790;53.022;12.968;2023-04-15T00:14:38;20.40;44.40
15384;DHT22;7790;53.022;12.968;2023-04-15T00:18:39;20.40;44.40
15384;DHT22;7790;53.022;12.968;2023-04-15T00:22:40;20.50;44.40
15384;DHT22;7790;53.022;12.968;2023-04-15T00:26:41;20.50;44.40
15384;DHT22;7790;53.022;12.968;2023-04-15T00:30:42;20.60;44.40
15384;DHT22;7790;53.022;12.968;2023-04-15T00:34:43;20.60;44.20
15384;DHT22;7790;53.022;12.968;2023-04-15T00:38:45;20.70;44.20
15384;DHT22;7790;53.022;12.968;2023-04-15T00:42:46;20.80;44.20
15384;DHT22;7790;53.022;12.968;2023-04-15T00:46:50;20.80;44.10
15384;DHT22;7790;53.022;12.968;2023-04-15T00:50:51;20.80;44.00
15384;DHT22;7790;53.022;12.968;2023-04-15T00:54:52;20.80;44.00
15384;DHT22;7790;53.022;12.968;2023-04-15T00:58:53;20.80;44.00
15384;DHT22;7790;53.022;12.968;2023-04-15T01:02:54;20.70;44.10
15384;DHT22;7790;53.022;12.968;2023-04-15T01:06:55;20.70;44.30
15384;DHT22;7790;53.022;12.968;2023-04-15T01:11:00;20.60;44.30
15384;DHT22;7790;53.022;12.968;2023-04-15T01:15:03;20.60;44.50
15384;DHT22;7790;53.022;12.968;2023-04-15T01:19:07;20.60;44.70
15384;DHT22;7790;53.022;12.968;2023-04-15T01:23:10;20.60;44.80
15384;DHT22;7790;53.022;12.968;2023-04-15T01:27:11;20.50;44.80
15384;DHT22;7790;53.022;12.968;2023-04-15T01:31:13;20.40;45.00
15384;DHT22;7790;53.022;12.968;2023-04-15T01:35:14;20.50;45.10
15384;DHT22;7790;53.022;12.968;2023-04-15T01:39:16;20.50;45.00
15384;DHT22;7790;53.022;12.968;2023-04-15T01:43:17;20.50;44.90
15384;DHT22;7790;53.022;12.968;2023-04-15T01:47:18;20.50;44.90
15384;DHT22;7790;53.022;12.968;2023-04-15T01:51:19;20.60;44.90
15384;DHT22;7790;53.022;12.968;2023-04-15T01:55:20;20.60;44.80
15384;DHT22;7790;53.022;12.968;2023-04-15T01:59:21;20.70;44.70
15384;DHT22;7790;53.022;12.968;2023-04-15T02:03:23;20.60;44.80
15384;DHT22;7790;53.022;12.968;2023-04-15T02:07:26;20.50;44.90
15384;DHT22;7790;53.022;12.968;2023-04-15T02:11:28;20.50;45.00
15384;DHT22;7790;53.022;12.968;2023-04-15T02:15:29;20.40;45.00
15384;DHT22;7790;53.022;12.968;2023-04-15T02:19:30;20.40;45.10
15384;DHT22;7790;53.022;12.968;2023-04-15T02:23:31;20.40;45.20
15384;DHT22;7790;53.022;12.968;2023-04-15T02:27:32;20.30;45.20
15384;DHT22;7790;53.022;12.968;2023-04-15T02:31:33;20.30;45.20
15384;DHT22;7790;53.022;12.968;2023-04-15T02:35:36;20.20;45.30
15384;DHT22;7790;53.022;12.968;2023-04-15T02:39:42;20.20;45.30
15384;DHT22;7790;53.022;12.968;2023-04-15T02:43:43;20.30;45.10
15384;DHT22;7790;53.022;12.968;2023-04-15T02:47:46;20.30;45.10
15384;DHT22;7790;53.022;12.968;2023-04-15T02:51:47;20.40;45.20
15384;DHT22;7790;53.022;12.968;2023-04-15T02:55:49;20.40;45.10
15384;DHT22;7790;53.022;12.968;2023-04-15T02:59:50;20.40;45.00
15384;DHT22;7790;53.022;12.968;2023-04-15T03:03:52;20.50;45.00
15384;DHT22;7790;53.022;12.968;2023-04-15T03:07:53;20.50;44.90
15384;DHT22;7790;53.022;12.968;2023-04-15T03:11:54;20.50;44.90
15384;DHT22;7790;53.022;12.968;2023-04-15T03:15:57;20.40;45.00
15384;DHT22;7790;53.022;12.968;2023-04-15T03:19:58;20.40;45.00
15384;DHT22;7790;53.022;12.968;2023-04-15T03:23:59;20.40;45.00
15384;DHT22;7790;53.022;12.968;2023-04-15T03:28:00;20.30;45.10
15384;DHT22;7790;53.022;12.968;2023-04-15T03:32:01;20.30;45.20
15384;DHT22;7790;53.022;12.968;2023-04-15T03:36:06;20.20;45.20
15384;DHT22;7790;53.022;12.968;2023-04-15T03:40:07;20.20;45.20
15384;DHT22;7790;53.022;12.968;2023-04-15T03:44:09;20.10;45.20
15384;DHT22;7790;53.022;12.968;2023-04-15T03:48:10;20.20;45.10
15384;DHT22;7790;53.022;12.968;2023-04-15T03:52:11;20.30;45.10
15384;DHT22;7790;53.022;12.968;2023-04-15T03:56:12;20.30;45.10
15384;DHT22;7790;53.022;12.968;2023-04-15T04:00:12;20.30;45.00
15384;DHT22;7790;53.022;12.968;2023-04-15T04:04:13;20.40;44.90
15384;DHT22;7790;53.022;12.968;2023-04-15T04:08:14;20.40;44.90
15384;DHT22;7790;53.022;12.968;2023-04-15T04:12:16;20.50;44.90
15384;DHT22;7790;53.022;12.968;2023-04-15T04:16:16;20.50;44.80
15384;DHT22;7790;53.022;12.968;2023-04-15T04:20:17;20.50;44.70
15384;DHT22;7790;53.022;12.968;2023-04-15T04:24:18;20.50;44.80
15384;DHT22;7790;53.022;12.968;2023-04-15T04:28:19;20.40;45.30
15384;DHT22;7790;53.022;12.968;2023-04-15T04:32:20;20.40;44.90
15384;DHT22;7790;53.022;12.968;2023-04-15T04:36:21;20.30;44.90
15384;DHT22;7790;53.022;12.968;2023-04-15T04:40:22;20.30;45.00
15384;DHT22;7790;53.022;12.968;2023-04-15T04:44:23;20.30;45.10
15384;DHT22;7790;53.022;12.968;2023-04-15T04:48:23;20.10;45.00
15384;DHT22;7790;53.022;12.968;2023-04-15T04:52:24;20.10;45.10
15384;DHT22;7790;53.022;12.968;2023-04-15T04:56:25;20.20;45.10
15384;DHT22;7790;53.022;12.968;2023-04-15T05:00:26;20.20;45.00
15384;DHT22;7790;53.022;12.968;2023-04-15T05:04:27;20.30;45.10
15384;DHT22;7790;53.022;12.968;2023-04-15T05:08:28;20.30;44.80
15384;DHT22;7790;53.022;12.968;2023-04-15T05:12:29;20.40;44.80
15384;DHT22;7790;53.022;12.968;2023-04-15T05:16:30;20.40;44.60
15384;DHT22;7790;53.022;12.968;2023-04-15T05:20:31;20.50;44.60
15384;DHT22;7790;53.022;12.968;2023-04-15T05:24:32;20.60;44.50
15384;DHT22;7790;53.022;12.968;2023-04-15T05:28:32;20.60;44.40
15384;DHT22;7790;53.022;12.968;2023-04-15T05:32:33;20.60;44.40
15384;DHT22;7790;53.022;12.968;2023-04-15T05:36:37;20.60;44.50
15384;DHT22;7790;53.022;12.968;2023-04-15T05:40:38;20.60;44.40
15384;DHT22;7790;53.022;12.968;2023-04-15T05:44:39;20.50;44.50
15384;DHT22;7790;53.022;12.968;2023-04-15T05:48:40;20.50;44.70
15384;DHT22;7790;53.022;12.968;2023-04-15T05:52:41;20.30;44.70
15384;DHT22;7790;53.022;12.968;2023-04-15T05:56:42;20.40;44.80
15384;DHT22;7790;53.022;12.968;2023-04-15T06:00:43;20.30;44.90
15384;DHT22;7790;53.022;12.968;2023-04-15T06:04:45;20.20;45.00
15384;DHT22;7790;53.022;12.968;2023-04-15T06:08:46;20.10;45.20
15384;DHT22;7790;53.022;12.968;2023-04-15T06:12:47;20.10;45.20
15384;DHT22;7790;53.022;12.968;2023-04-15T06:16:48;20.20;45.20
15384;DHT22;7790;53.022;12.968;2023-04-15T06:20:49;20.20;45.20
15384;DHT22;7790;53.022;12.968;2023-04-15T06:24:51;20.30;45.20
15384;DHT22;7790;53.022;12.968;2023-04-15T06:28:52;20.40;45.10
15384;DHT22;7790;53.022;12.968;2023-04-15T06:32:54;20.40;44.90
15384;DHT22;7790;53.022;12.968;2023-04-15T06:36:54;20.50;44.90
15384;DHT22;7790;53.022;12.968;2023-04-15T06:40:56;20.40;44.40
15384;DHT22;7790;53.022;12.968;2023-04-15T06:44:57;20.10;44.80
15384;DHT22;7790;53.022;12.968;2023-04-15T06:48:58;20.50;44.70
15384;DHT22;7790;53.022;12.968;2023-04-15T06:52:58;20.60;44.60
15384;DHT22;7790;53.022;12.968;2023-04-15T06:56:59;20.70;44.50
15384;DHT22;7790;53.022;12.968;2023-04-15T07:01:01;20.70;44.80
15384;DHT22;7790;53.022;12.968;2023-04-15T07:05:02;20.70;44.60
15384;DHT22;7790;53.022;12.968;2023-04-15T07:09:03;20.60;44.50
15384;DHT22;7790;53.022;12.968;2023-04-15T07:13:04;20.60;44.80
15384;DHT22;7790;53.022;12.968;2023-04-15T07:17:07;20.60;44.80
15384;DHT22;7790;53.022;12.968;2023-04-15T07:21:08;20.60;44.90
15384;DHT22;7790;53.022;12.968;2023-04-15T07:25:09;20.60;44.70
15384;DHT22;7790;53.022;12.968;2023-04-15T07:29:10;20.70;44.80
15384;DHT22;7790;53.022;12.968;2023-04-15T07:33:11;20.70;44.60
15384;DHT22;7790;53.022;12.968;2023-04-15T07:37:13;20.40;45.10
15384;DHT22;7790;53.022;12.968;2023-04-15T07:41:14;20.30;45.30
15384;DHT22;7790;53.022;12.968;2023-04-15T07:45:15;20.30;45.40
15384;DHT22;7790;53.022;12.968;2023-04-15T07:49:16;20.20;45.40
15384;DHT22;7790;53.022;12.968;2023-04-15T07:53:18;20.20;45.40
15384;DHT22;7790;53.022;12.968;2023-04-15T07:57:21;20.30;45.40
15384;DHT22;7790;53.022;12.968;2023-04-15T08:01:22;20.50;44.70
15384;DHT22;7790;53.022;12.968;2023-04-15T08:05:23;20.60;44.90
15384;DHT22;7790;53.022;12.968;2023-04-15T08:09:24;20.60;44.80
15384;DHT22;7790;53.022;12.968;2023-04-15T08:13:26;20.60;44.90
15384;DHT22;7790;53.022;12.968;2023-04-15T08:17:27;20.70;44.80
15384;DHT22;7790;53.022;12.968;2023-04-15T08:21:28;20.80;44.70
15384;DHT22;7790;53.022;12.968;2023-04-15T08:25:33;20.90;44.60
15384;DHT22;7790;53.022;12.968;2023-04-15T08:29:34;21.00;44.40
15384;DHT22;7790;53.022;12.968;2023-04-15T08:33:35;21.10;44.40
15384;DHT22;7790;53.022;12.968;2023-04-15T08:37:36;21.10;44.40
15384;DHT22;7790;53.022;12.968;2023-04-15T08:41:44;21.10;44.30
15384;DHT22;7790;53.022;12.968;2023-04-15T08:45:49;21.10;44.50
15384;DHT22;7790;53.022;12.968;2023-04-15T08:49:52;21.10;44.40
15384;DHT22;7790;53.022;12.968;2023-04-15T08:53:55;21.00;44.70
15384;DHT22;7790;53.022;12.968;2023-04-15T08:57:56;21.00;44.80
15384;DHT22;7790;53.022;12.968;2023-04-15T09:01:57;20.90;44.70
15384;DHT22;7790;53.022;12.968;2023-04-15T09:05:58;20.90;44.90
15384;DHT22;7790;53.022;12.968;2023-04-15T09:09:59;20.80;44.90
15384;DHT22;7790;53.022;12.968;2023-04-15T09:14:01;20.80;45.00
15384;DHT22;7790;53.022;12.968;2023-04-15T09:18:02;20.70;45.00
15384;DHT22;7790;53.022;12.968;2023-04-15T09:22:03;20.70;44.90
15384;DHT22;7790;53.022;12.968;2023-04-15T09:26:04;20.80;44.90
15384;DHT22;7790;53.022;12.968;2023-04-15T09:30:07;20.90;44.90
15384;DHT22;7790;53.022;12.968;2023-04-15T09:34:09;20.80;44.90
15384;DHT22;7790;53.022;12.968;2023-04-15T09:38:09;20.80;44.90
15384;DHT22;7790;53.022;12.968;2023-04-15T09:42:10;20.80;45.10
15384;DHT22;7790;53.022;12.968;2023-04-15T09:46:11;20.70;45.10
15384;DHT22;7790;53.022;12.968;2023-04-15T09:50:12;20.70;45.10
15384;DHT22;7790;53.022;12.968;2023-04-15T09:54:18;20.70;45.10
15384;DHT22;7790;53.022;12.968;2023-04-15T09:58:26;20.70;45.20
15384;DHT22;7790;53.022;12.968;2023-04-15T10:02:29;20.70;45.30
15384;DHT22;7790;53.022;12.968;2023-04-15T10:06:30;20.60;45.20
15384;DHT22;7790;53.022;12.968;2023-04-15T10:10:31;20.70;45.40
15384;DHT22;7790;53.022;12.968;2023-04-15T10:14:34;20.80;45.20
15384;DHT22;7790;53.022;12.968;2023-04-15T10:18:42;20.80;45.20
15384;DHT22;7790;53.022;12.968;2023-04-15T10:22:44;20.90;45.00
15384;DHT22;7790;53.022;12.968;2023-04-15T10:26:46;21.00;44.90
15384;DHT22;7790;53.022;12.968;2023-04-15T10:30:48;21.10;44.80
15384;DHT22;7790;53.022;12.968;2023-04-15T10:34:50;21.00;43.80
15384;DHT22;7790;53.022;12.968;2023-04-15T10:38:52;20.90;43.90
15384;DHT22;7790;53.022;12.968;2023-04-15T10:42:55;20.70;43.80
15384;DHT22;7790;53.022;12.968;2023-04-15T10:46:57;20.60;44.10
15384;DHT22;7790;53.022;12.968;2023-04-15T10:51:00;20.50;43.90
15384;DHT22;7790;53.022;12.968;2023-04-15T10:55:15;20.50;44.00
15384;DHT22;7790;53.022;12.968;2023-04-15T10:59:18;20.30;44.40
15384;DHT22;7790;53.022;12.968;2023-04-15T11:03:40;20.00;44.20
15384;DHT22;7790;53.022;12.968;2023-04-15T11:12:08;19.80;44.80
15384;DHT22;7790;53.022;12.968;2023-04-15T11:16:10;19.60;45.10
15384;DHT22;7790;53.022;12.968;2023-04-15T11:20:14;19.60;45.00
15384;DHT22;7790;53.022;12.968;2023-04-15T11:24:24;19.40;45.20
15384;DHT22;7790;53.022;12.968;2023-04-15T11:28:29;19.30;45.40
15384;DHT22;7790;53.022;12.968;2023-04-15T11:32:30;19.30;45.50
15384;DHT22;7790;53.022;12.968;2023-04-15T11:36:31;19.20;45.60
15384;DHT22;7790;53.022;12.968;2023-04-15T11:40:32;19.10;45.50
15384;DHT22;7790;53.022;12.968;2023-04-15T11:44:35;19.10;45.80
15384;DHT22;7790;53.022;12.968;2023-04-15T11:48:35;19.00;45.90
15384;DHT22;7790;53.022;12.968;2023-04-15T11:52:36;18.90;46.00
15384;DHT22;7790;53.022;12.968;2023-04-15T11:56:37;18.90;46.20
15384;DHT22;7790;53.022;12.968;2023-04-15T12:00:39;18.70;46.20
15384;DHT22;7790;53.022;12.968;2023-04-15T12:04:40;18.70;46.40
15384;DHT22;7790;53.022;12.968;2023-04-15T12:09:02;18.60;46.30
15384;DHT22;7790;53.022;12.968;2023-04-15T12:13:05;18.60;46.90
15384;DHT22;7790;53.022;12.968;2023-04-15T12:17:06;18.50;46.80
15384;DHT22;7790;53.022;12.968;2023-04-15T12:21:10;18.40;47.00
15384;DHT22;7790;53.022;12.968;2023-04-15T12:25:11;18.40;47.40
15384;DHT22;7790;53.022;12.968;2023-04-15T12:29:14;18.40;47.00
15384;DHT22;7790;53.022;12.968;2023-04-15T12:33:16;18.40;47.20
15384;DHT22;7790;53.022;12.968;2023-04-15T12:37:17;18.30;47.00
15384;DHT22;7790;53.022;12.968;2023-04-15T12:41:19;18.20;47.10
15384;DHT22;7790;53.022;12.968;2023-04-15T12:45:20;18.20;47.40
15384;DHT22;7790;53.022;12.968;2023-04-15T12:49:22;18.20;47.40
15384;DHT22;7790;53.022;12.968;2023-04-15T12:53:23;18.20;47.40
15384;DHT22;7790;53.022;12.968;2023-04-15T12:57:24;18.20;47.20
15384;DHT22;7790;53.022;12.968;2023-04-15T13:01:25;18.20;47.20
15384;DHT22;7790;53.022;12.968;2023-04-15T13:05:26;18.10;47.70
15384;DHT22;7790;53.022;12.968;2023-04-15T13:09:27;18.10;47.70
15384;DHT22;7790;53.022;12.968;2023-04-15T13:13:28;18.00;47.90
15384;DHT22;7790;53.022;12.968;2023-04-15T13:17:31;18.00;48.20
15384;DHT22;7790;53.022;12.968;2023-04-15T13:21:32;17.90;48.20
15384;DHT22;7790;53.022;12.968;2023-04-15T13:25:34;17.90;48.50
15384;DHT22;7790;53.022;12.968;2023-04-15T13:29:35;17.90;48.60
15384;DHT22;7790;53.022;12.968;2023-04-15T13:33:36;17.80;48.60
15384;DHT22;7790;53.022;12.968;2023-04-15T13:37:37;17.80;48.70
15384;DHT22;7790;53.022;12.968;2023-04-15T13:41:39;17.70;48.90
15384;DHT22;7790;53.022;12.968;2023-04-15T13:45:40;17.70;49.10
15384;DHT22;7790;53.022;12.968;2023-04-15T13:49:41;17.70;49.20
15384;DHT22;7790;53.022;12.968;2023-04-15T13:53:42;17.70;49.30
15384;DHT22;7790;53.022;12.968;2023-04-15T13:57:43;17.80;49.20
15384;DHT22;7790;53.022;12.968;2023-04-15T14:01:44;17.70;49.30
15384;DHT22;7790;53.022;12.968;2023-04-15T14:05:45;17.70;49.50
15384;DHT22;7790;53.022;12.968;2023-04-15T14:09:46;17.70;49.70
15384;DHT22;7790;53.022;12.968;2023-04-15T14:13:48;17.60;49.70
15384;DHT22;7790;53.022;12.968;2023-04-15T14:17:49;17.70;49.80
15384;DHT22;7790;53.022;12.968;2023-04-15T14:21:50;17.70;49.70
15384;DHT22;7790;53.022;12.968;2023-04-15T14:25:52;17.70;49.80
15384;DHT22;7790;53.022;12.968;2023-04-15T14:29:53;17.70;49.90
15384;DHT22;7790;53.022;12.968;2023-04-15T14:33:54;17.70;50.00
15384;DHT22;7790;53.022;12.968;2023-04-15T14:37:55;17.70;50.10
15384;DHT22;7790;53.022;12.968;2023-04-15T14:41:56;17.60;50.30
15384;DHT22;7790;53.022;12.968;2023-04-15T14:45:56;17.70;50.60
15384;DHT22;7790;53.022;12.968;2023-04-15T14:49:57;18.00;50.00
15384;DHT22;7790;53.022;12.968;2023-04-15T14:53:58;18.10;49.40
15384;DHT22;7790;53.022;12.968;2023-04-15T14:57:59;18.20;49.00
15384;DHT22;7790;53.022;12.968;2023-04-15T15:02:01;18.30;48.90
15384;DHT22;7790;53.022;12.968;2023-04-15T15:06:03;18.30;48.70
15384;DHT22;7790;53.022;12.968;2023-04-15T15:10:04;18.40;48.50
15384;DHT22;7790;53.022;12.968;2023-04-15T15:14:05;18.40;48.40
15384;DHT22;7790;53.022;12.968;2023-04-15T15:18:06;18.40;48.20
15384;DHT22;7790;53.022;12.968;2023-04-15T15:22:07;18.40;48.10
15384;DHT22;7790;53.022;12.968;2023-04-15T15:26:08;18.50;47.90
15384;DHT22;7790;53.022;12.968;2023-04-15T15:30:09;18.50;47.90
15384;DHT22;7790;53.022;12.968;2023-04-15T15:34:10;18.40;48.20
15384;DHT22;7790;53.022;12.968;2023-04-15T15:38:11;18.40;48.10
15384;DHT22;7790;53.022;12.968;2023-04-15T15:42:12;18.50;48.00
15384;DHT22;7790;53.022;12.968;2023-04-15T15:46:13;18.60;47.80
15384;DHT22;7790;53.022;12.968;2023-04-15T15:50:14;18.80;47.80
15384;DHT22;7790;53.022;12.968;2023-04-15T15:54:15;18.90;47.70
15384;DHT22;7790;53.022;12.968;2023-04-15T15:58:16;19.00;47.70
15384;DHT22;7790;53.022;12.968;2023-04-15T16:02:17;19.10;47.90
15384;DHT22;7790;53.022;12.968;2023-04-15T16:06:18;19.30;48.00
15384;DHT22;7790;53.022;12.968;2023-04-15T16:10:18;19.70;47.20
15384;DHT22;7790;53.022;12.968;2023-04-15T16:14:20;20.10;46.30
15384;DHT22;7790;53.022;12.968;2023-04-15T16:18:21;20.40;46.00
15384;DHT22;7790;53.022;12.968;2023-04-15T16:22:21;20.60;45.80
15384;DHT22;7790;53.022;12.968;2023-04-15T16:26:22;20.80;45.60
15384;DHT22;7790;53.022;12.968;2023-04-15T16:30:23;21.00;45.60
15384;DHT22;7790;53.022;12.968;2023-04-15T16:34:24;21.10;46.00
15384;DHT22;7790;53.022;12.968;2023-04-15T16:38:25;21.20;45.40
15384;DHT22;7790;53.022;12.968;2023-04-15T16:42:26;21.30;45.30
15384;DHT22;7790;53.022;12.968;2023-04-15T16:46:28;21.50;45.20
15384;DHT22;7790;53.022;12.968;2023-04-15T16:50:29;21.50;45.10
15384;DHT22;7790;53.022;12.968;2023-04-15T16:54:31;21.50;45.30
15384;DHT22;7790;53.022;12.968;2023-04-15T16:58:37;21.50;45.20
15384;DHT22;7790;53.022;12.968;2023-04-15T17:02:38;21.50;45.30
15384;DHT22;7790;53.022;12.968;2023-04-15T17:06:39;21.50;45.30
15384;DHT22;7790;53.022;12.968;2023-04-15T17:10:40;21.50;45.30
15384;DHT22;7790;53.022;12.968;2023-04-15T17:14:41;21.50;45.20
15384;DHT22;7790;53.022;12.968;2023-04-15T17:18:41;21.40;45.20
15384;DHT22;7790;53.022;12.968;2023-04-15T17:22:42;21.40;45.20
15384;DHT22;7790;53.022;12.968;2023-04-15T17:26:43;21.40;45.30
15384;DHT22;7790;53.022;12.968;2023-04-15T17:30:44;21.40;45.30
15384;DHT22;7790;53.022;12.968;2023-04-15T17:34:45;21.50;45.20
15384;DHT22;7790;53.022;12.968;2023-04-15T17:38:48;21.50;45.20
15384;DHT22;7790;53.022;12.968;2023-04-15T17:42:48;21.50;45.10
15384;DHT22;7790;53.022;12.968;2023-04-15T17:46:49;21.40;45.10
15384;DHT22;7790;53.022;12.968;2023-04-15T17:50:50;21.40;45.10
15384;DHT22;7790;53.022;12.968;2023-04-15T17:54:51;21.40;45.20
15384;DHT22;7790;53.022;12.968;2023-04-15T17:58:52;21.30;45.10
15384;DHT22;7790;53.022;12.968;2023-04-15T18:02:54;21.30;45.10
15384;DHT22;7790;53.022;12.968;2023-04-15T18:06:56;21.30;45.20
15384;DHT22;7790;53.022;12.968;2023-04-15T18:10:56;21.20;45.20
15384;DHT22;7790;53.022;12.968;2023-04-15T18:14:57;21.20;45.00
15384;DHT22;7790;53.022;12.968;2023-04-15T18:18:58;21.20;45.00
15384;DHT22;7790;53.022;12.968;2023-04-15T18:22:59;21.20;44.90
15384;DHT22;7790;53.022;12.968;2023-04-15T18:27:01;21.20;45.00
15384;DHT22;7790;53.022;12.968;2023-04-15T18:31:01;21.40;44.80
15384;DHT22;7790;53.022;12.968;2023-04-15T18:35:04;21.40;45.10
15384;DHT22;7790;53.022;12.968;2023-04-15T18:39:06;21.40;44.90
15384;DHT22;7790;53.022;12.968;2023-04-15T18:43:06;21.50;44.90
15384;DHT22;7790;53.022;12.968;2023-04-15T18:47:09;21.50;44.70
15384;DHT22;7790;53.022;12.968;2023-04-15T18:51:09;21.60;44.60
15384;DHT22;7790;53.022;12.968;2023-04-15T18:55:10;21.50;44.40
15384;DHT22;7790;53.022;12.968;2023-04-15T18:59:11;21.50;44.40
15384;DHT22;7790;53.022;12.968;2023-04-15T19:03:12;21.50;44.40
15384;DHT22;7790;53.022;12.968;2023-04-15T19:07:13;21.40;44.50
15384;DHT22;7790;53.022;12.968;2023-04-15T19:11:14;21.20;44.10
15384;DHT22;7790;53.022;12.968;2023-04-15T19:15:15;21.40;44.60
15384;DHT22;7790;53.022;12.968;2023-04-15T19:19:16;21.40;44.50
15384;DHT22;7790;53.022;12.968;2023-04-15T19:23:17;21.40;44.60
15384;DHT22;7790;53.022;12.968;2023-04-15T19:27:18;21.40;44.40
15384;DHT22;7790;53.022;12.968;2023-04-15T19:31:20;21.40;44.60
15384;DHT22;7790;53.022;12.968;2023-04-15T19:35:21;21.40;44.60
15384;DHT22;7790;53.022;12.968;2023-04-15T19:39:22;21.50;44.90
15384;DHT22;7790;53.022;12.968;2023-04-15T19:43:23;21.50;44.80
15384;DHT22;7790;53.022;12.968;2023-04-15T19:47:24;21.50;45.80
15384;DHT22;7790;53.022;12.968;2023-04-15T19:51:25;21.50;45.40
15384;DHT22;7790;53.022;12.968;2023-04-15T19:55:27;21.40;45.40
15384;DHT22;7790;53.022;12.968;2023-04-15T19:59:28;21.70;45.20
15384;DHT22;7790;53.022;12.968;2023-04-15T20:03:29;21.70;45.30
15384;DHT22;7790;53.022;12.968;2023-04-15T20:07:30;21.70;45.20
15384;DHT22;7790;53.022;12.968;2023-04-15T20:11:31;21.60;45.60
15384;DHT22;7790;53.022;12.968;2023-04-15T20:15:32;21.60;47.50
15384;DHT22;7790;53.022;12.968;2023-04-15T20:19:33;21.50;45.90
15384;DHT22;7790;53.022;12.968;2023-04-15T20:23:34;21.50;46.40
15384;DHT22;7790;53.022;12.968;2023-04-15T20:27:35;21.40;46.80
15384;DHT22;7790;53.022;12.968;2023-04-15T20:31:36;21.30;46.80
15384;DHT22;7790;53.022;12.968;2023-04-15T20:35:37;21.30;46.80
15384;DHT22;7790;53.022;12.968;2023-04-15T20:39:39;21.20;46.70
15384;DHT22;7790;53.022;12.968;2023-04-15T20:43:40;21.20;46.80
15384;DHT22;7790;53.022;12.968;2023-04-15T20:47:41;21.10;46.80
15384;DHT22;7790;53.022;12.968;2023-04-15T20:51:42;21.00;46.90
15384;DHT22;7790;53.022;12.968;2023-04-15T20:55:43;21.00;46.80
15384;DHT22;7790;53.022;12.968;2023-04-15T20:59:44;21.00;46.90
15384;DHT22;7790;53.022;12.968;2023-04-15T21:03:45;21.10;47.00
15384;DHT22;7790;53.022;12.968;2023-04-15T21:07:46;21.10;46.70
15384;DHT22;7790;53.022;12.968;2023-04-15T21:11:48;21.10;46.90
15384;DHT22;7790;53.022;12.968;2023-04-15T21:15:49;21.10;46.90
15384;DHT22;7790;53.022;12.968;2023-04-15T21:19:52;21.00;47.00
15384;DHT22;7790;53.022;12.968;2023-04-15T21:23:54;21.00;47.00
15384;DHT22;7790;53.022;12.968;2023-04-15T21:27:55;21.00;47.00
15384;DHT22;7790;53.022;12.968;2023-04-15T21:31:55;20.90;46.90
15384;DHT22;7790;53.022;12.968;2023-04-15T21:35:56;20.90;46.90
15384;DHT22;7790;53.022;12.968;2023-04-15T21:39:57;20.90;46.90
15384;DHT22;7790;53.022;12.968;2023-04-15T21:43:58;20.80;46.90
15384;DHT22;7790;53.022;12.968;2023-04-15T21:47:59;20.80;47.00
15384;DHT22;7790;53.022;12.968;2023-04-15T21:52:00;20.80;47.10
15384;DHT22;7790;53.022;12.968;2023-04-15T21:56:01;20.70;47.00
15384;DHT22;7790;53.022;12.968;2023-04-15T22:00:02;20.70;46.90
15384;DHT22;7790;53.022;12.968;2023-04-15T22:04:08;20.70;47.00
15384;DHT22;7790;53.022;12.968;2023-04-15T22:08:10;20.60;47.00
15384;DHT22;7790;53.022;12.968;2023-04-15T22:12:11;20.60;47.00
15384;DHT22;7790;53.022;12.968;2023-04-15T22:16:12;20.60;46.90
15384;DHT22;7790;53.022;12.968;2023-04-15T22:20:13;20.60;46.90
15384;DHT22;7790;53.022;12.968;2023-04-15T22:24:14;20.50;46.80
15384;DHT22;7790;53.022;12.968;2023-04-15T22:28:15;20.50;46.80
15384;DHT22;7790;53.022;12.968;2023-04-15T22:32:16;20.50;46.90
15384;DHT22;7790;53.022;12.968;2023-04-15T22:36:16;20.50;46.80
15384;DHT22;7790;53.022;12.968;2023-04-15T22:40:17;20.50;46.80
15384;DHT22;7790;53.022;12.968;2023-04-15T22:44:18;20.50;46.80
15384;DHT22;7790;53.022;12.968;2023-04-15T22:48:19;20.50;46.80
15384;DHT22;7790;53.022;12.968;2023-04-15T22:52:20;20.50;46.80
15384;DHT22;7790;53.022;12.968;2023-04-15T22:56:21;20.40;46.80
15384;DHT22;7790;53.022;12.968;2023-04-15T23:00:22;20.40;46.90
15384;DHT22;7790;53.022;12.968;2023-04-15T23:04:23;20.40;46.90
15384;DHT22;7790;53.022;12.968;2023-04-15T23:08:24;20.40;46.90
15384;DHT22;7790;53.022;12.968;2023-04-15T23:12:25;20.30;46.90
15384;DHT22;7790;53.022;12.968;2023-04-15T23:16:26;20.30;46.90
15384;DHT22;7790;53.022;12.968;2023-04-15T23:20:27;20.30;46.90
15384;DHT22;7790;53.022;12.968;2023-04-15T23:24:28;20.20;46.50
15384;DHT22;7790;53.022;12.968;2023-04-15T23:28:29;20.20;46.90
15384;DHT22;7790;53.022;12.968;2023-04-15T23:32:30;20.10;47.00
15384;DHT22;7790;53.022;12.968;2023-04-15T23:36:31;20.10;46.90
15384;DHT22;7790;53.022;12.968;2023-04-15T23:40:32;20.10;47.50
15384;DHT22;7790;53.022;12.968;2023-04-15T23:44:33;20.10;46.80
15384;DHT22;7790;53.022;12.968;2023-04-15T23:48:34;20.10;46.80
15384;DHT22;7790;53.022;12.968;2023-04-15T23:52:35;20.00;46.80
15384;DHT22;7790;53.022;12.968;2023-04-15T23:56:36;20.00;46.90
